createdAt,value
2018-09-08T00:01:44.632Z,21.97
2018-09-08T00:04:15.852Z,17.97
2018-09-08T00:06:51.046Z,17.83
2018-09-08T00:09:23.783Z,19.60
2018-09-08T00:11:54.612Z,17.50
2018-09-08T00:14:24.372Z,17.90
2018-09-08T00:17:01.433Z,20.20
2018-09-08T00:19:52.863Z,19.40
2018-09-08T00:22:28.851Z,21.00
2018-09-08T00:25:05.112Z,18.67
2018-09-08T00:27:45.456Z,16.90
2018-09-08T00:30:16.533Z,19.80
2018-09-08T00:32:47.523Z,20.20
2018-09-08T00:35:17.903Z,20.33
2018-09-08T00:37:47.961Z,18.73
2018-09-08T00:40:19.042Z,20.10
2018-09-08T00:42:50.352Z,18.53
2018-09-08T00:45:20.312Z,23.50
2018-09-08T00:47:50.373Z,18.97
2018-09-08T00:50:21.222Z,21.70
2018-09-08T00:52:52.512Z,19.53
2018-09-08T00:55:23.241Z,20.27
2018-09-08T00:57:54.003Z,21.77
2018-09-08T01:02:45.101Z,21.10
2018-09-08T01:05:16.412Z,25.57
2018-09-08T01:07:47.402Z,22.07
2018-09-08T01:10:22.121Z,21.67
2018-09-08T01:12:53.332Z,22.43
2018-09-08T01:15:23.893Z,24.63
2018-09-08T01:17:54.742Z,24.83
2018-09-08T01:20:24.678Z,27.07
2018-09-08T01:22:55.563Z,25.93
2018-09-08T01:25:26.654Z,27.93
2018-09-08T01:27:57.511Z,29.47
2018-09-08T01:30:28.591Z,27.07
2018-09-08T01:32:59.403Z,28.27
2018-09-08T01:35:30.363Z,30.17
2018-09-08T01:38:01.242Z,27.63
2018-09-08T01:40:32.000Z,27.17
2018-09-08T01:43:01.813Z,27.13
2018-09-08T01:45:32.972Z,26.70
2018-09-08T01:48:02.943Z,32.83
2018-09-08T01:50:33.703Z,35.03
2018-09-08T01:53:03.634Z,28.90
2018-09-08T01:55:34.720Z,32.33
2018-09-08T01:58:04.521Z,28.73
2018-09-08T02:00:34.542Z,31.23
2018-09-08T02:03:04.632Z,29.13
2018-09-08T02:05:34.752Z,31.60
2018-09-08T02:08:04.686Z,30.77
2018-09-08T02:10:35.484Z,32.37
2018-09-08T02:13:06.292Z,32.10
2018-09-08T02:15:37.031Z,34.43
2018-09-08T02:18:07.121Z,36.30
2018-09-08T02:20:37.123Z,37.53
2018-09-08T02:23:07.103Z,36.77
2018-09-08T02:25:37.002Z,33.07
2018-09-08T02:28:08.065Z,34.33
2018-09-08T02:30:38.386Z,32.67
2018-09-08T02:33:09.772Z,34.13
2018-09-08T02:35:39.843Z,34.50
2018-09-08T02:38:09.983Z,35.83
2018-09-08T02:40:39.862Z,31.57
2018-09-08T02:43:09.943Z,35.50
2018-09-08T02:45:40.272Z,30.53
2018-09-08T02:48:10.723Z,30.43
2018-09-08T02:50:39.403Z,29.23
2018-09-08T02:53:08.986Z,27.13
2018-09-08T02:55:36.963Z,28.27
2018-09-08T02:58:04.691Z,30.20
2018-09-08T03:00:32.703Z,31.80
2018-09-08T03:03:00.644Z,28.67
2018-09-08T03:05:28.183Z,28.47
2018-09-08T03:07:55.901Z,28.10
2018-09-08T03:10:23.523Z,30.10
2018-09-08T03:12:51.093Z,30.17
2018-09-08T03:15:18.784Z,28.57
2018-09-08T03:17:46.290Z,31.50
2018-09-08T03:20:13.683Z,27.60
2018-09-08T03:22:41.302Z,31.33
2018-09-08T03:25:09.243Z,29.13
2018-09-08T03:27:36.934Z,28.13
2018-09-08T03:30:04.772Z,29.20
2018-09-08T03:32:32.283Z,30.47
2018-09-08T03:34:59.971Z,29.17
2018-09-08T03:37:27.381Z,31.70
2018-09-08T03:39:55.045Z,30.87
2018-09-08T03:42:22.752Z,30.23
2018-09-08T03:44:50.632Z,29.33
2018-09-08T03:47:18.171Z,31.43
2018-09-08T03:49:46.753Z,32.50
2018-09-08T03:52:14.284Z,29.23
2018-09-08T03:54:42.141Z,30.07
2018-09-08T03:57:09.944Z,32.73
2018-09-08T03:59:37.703Z,32.70
2018-09-08T04:02:05.223Z,31.23
2018-09-08T04:04:35.613Z,32.57
2018-09-08T04:07:06.053Z,30.60
2018-09-08T04:09:36.251Z,34.50
2018-09-08T04:12:06.755Z,33.53
2018-09-08T04:14:37.051Z,31.33
2018-09-08T04:17:07.303Z,33.53
2018-09-08T04:19:37.463Z,33.57
2018-09-08T04:22:08.000Z,31.73
2018-09-08T04:24:38.460Z,33.97
2018-09-08T04:27:07.893Z,32.47
2018-09-08T04:29:38.355Z,33.30
2018-09-08T04:32:08.544Z,32.83
2018-09-08T04:34:38.838Z,33.53
2018-09-08T04:37:08.911Z,34.17
2018-09-08T04:39:39.264Z,36.67
2018-09-08T04:42:09.843Z,31.63
2018-09-08T04:44:40.632Z,34.53
2018-09-08T04:47:11.912Z,33.03
2018-09-08T04:49:41.832Z,35.57
2018-09-08T04:52:12.707Z,32.73
2018-09-08T04:54:44.651Z,34.33
2018-09-08T04:57:14.472Z,36.33
2018-09-08T04:59:44.872Z,33.33
2018-09-08T05:02:15.053Z,34.23
2018-09-08T05:04:46.232Z,33.47
2018-09-08T05:07:16.093Z,37.90
2018-09-08T05:09:46.242Z,32.87
2018-09-08T05:12:16.422Z,31.80
2018-09-08T05:14:46.593Z,33.90
2018-09-08T05:17:17.737Z,32.10
2018-09-08T05:19:48.853Z,34.77
2018-09-08T05:22:19.313Z,32.00
2018-09-08T05:24:50.633Z,33.47
2018-09-08T05:27:20.362Z,31.03
2018-09-08T05:29:50.233Z,30.80
2018-09-08T05:32:20.383Z,31.80
2018-09-08T05:34:51.041Z,32.57
2018-09-08T05:37:21.441Z,31.63
2018-09-08T05:39:52.472Z,32.33
2018-09-08T05:42:23.624Z,31.03
2018-09-08T05:44:54.273Z,33.97
2018-09-08T05:47:25.340Z,30.10
2018-09-08T05:49:55.932Z,34.07
2018-09-08T05:52:26.364Z,32.30
2018-09-08T05:54:56.639Z,30.93
2018-09-08T05:57:26.893Z,32.80
2018-09-08T05:59:57.164Z,30.80
2018-09-08T06:02:27.221Z,29.97
2018-09-08T06:04:57.662Z,29.10
2018-09-08T06:07:27.865Z,27.10
2018-09-08T06:09:58.606Z,30.33
2018-09-08T06:12:29.016Z,29.87
2018-09-08T06:14:59.241Z,30.57
2018-09-08T06:17:29.113Z,30.10
2018-09-08T06:19:59.453Z,29.77
2018-09-08T06:22:30.513Z,29.20
2018-09-08T06:25:00.763Z,28.70
2018-09-08T06:27:31.353Z,29.10
2018-09-08T06:30:01.844Z,29.03
2018-09-08T06:32:32.142Z,27.17
2018-09-08T06:35:02.333Z,28.43
2018-09-08T06:37:32.637Z,27.00
2018-09-08T06:40:03.373Z,27.37
2018-09-08T06:42:33.944Z,26.37
2018-09-08T06:45:04.139Z,26.83
2018-09-08T06:47:34.343Z,27.90
2018-09-08T06:50:04.522Z,28.80
2018-09-08T06:52:34.619Z,25.13
2018-09-08T06:55:04.605Z,24.50
2018-09-08T06:57:34.922Z,25.83
2018-09-08T07:00:05.773Z,26.80
2018-09-08T07:02:35.770Z,24.43
2018-09-08T07:05:05.388Z,21.70
2018-09-08T07:07:35.563Z,22.43
2018-09-08T07:10:06.132Z,24.17
2018-09-08T07:12:36.882Z,23.27
2018-09-08T07:15:07.373Z,25.20
2018-09-08T07:17:37.854Z,23.87
2018-09-08T07:20:08.742Z,21.97
2018-09-08T07:22:38.925Z,23.43
2018-09-08T07:25:09.722Z,23.17
2018-09-08T07:27:40.095Z,21.53
2018-09-08T07:30:10.082Z,23.03
2018-09-08T07:32:40.323Z,23.37
2018-09-08T07:35:10.792Z,24.27
2018-09-08T07:37:41.330Z,23.53
2018-09-08T07:40:11.412Z,24.90
2018-09-08T07:42:41.344Z,32.43
2018-09-08T07:45:12.884Z,27.20
2018-09-08T07:47:43.684Z,24.30
2018-09-08T07:50:14.374Z,25.53
2018-09-08T07:55:45.132Z,31.13
2018-09-08T07:58:22.144Z,28.13
2018-09-08T08:04:01.694Z,27.57
2018-09-08T08:06:38.310Z,28.23
2018-09-08T08:09:14.423Z,25.50
2018-09-08T08:11:50.672Z,24.57
2018-09-08T08:14:27.000Z,26.77
2018-09-08T08:17:02.886Z,24.40
2018-09-08T08:19:39.223Z,25.47
2018-09-08T08:22:14.948Z,24.53
2018-09-08T08:24:51.411Z,23.60
2018-09-08T08:27:27.431Z,24.50
2018-09-08T08:30:03.633Z,23.23
2018-09-08T08:32:40.792Z,25.07
2018-09-08T08:35:17.101Z,24.23
2018-09-08T08:37:53.324Z,25.67
2018-09-08T08:40:30.743Z,27.50
2018-09-08T08:43:08.080Z,22.20
2018-09-08T08:45:46.255Z,25.57
2018-09-08T08:48:22.914Z,23.87
2018-09-08T08:51:14.864Z,22.50
2018-09-08T08:54:06.864Z,22.40
2018-09-08T08:56:43.052Z,22.53
2018-09-08T08:59:19.343Z,20.60
2018-09-08T09:01:55.479Z,22.00
2018-09-08T09:04:31.401Z,24.23
2018-09-08T09:07:09.884Z,20.60
2018-09-08T09:09:47.027Z,22.13
2018-09-08T09:12:23.071Z,22.60
2018-09-08T09:14:59.324Z,17.47
2018-09-08T09:17:35.415Z,18.67
2018-09-08T09:21:30.042Z,21.90
2018-09-08T09:24:38.598Z,17.40
2018-09-08T09:27:14.232Z,18.03
2018-09-08T09:29:50.351Z,14.00
2018-09-08T09:32:26.332Z,14.63
2018-09-08T09:35:02.767Z,13.10
2018-09-08T09:37:39.052Z,15.03
2018-09-08T09:40:17.337Z,16.57
2018-09-08T09:42:54.085Z,15.93
2018-09-08T09:45:30.482Z,16.50
2018-09-08T09:48:07.702Z,17.90
2018-09-08T09:50:44.003Z,13.07
2018-09-08T09:53:20.305Z,12.57
2018-09-08T09:55:56.512Z,13.13
2018-09-08T09:58:34.218Z,12.50
2018-09-08T10:01:10.718Z,11.53
2018-09-08T10:03:47.581Z,11.67
2018-09-08T10:06:24.887Z,9.33
2018-09-08T10:09:02.389Z,12.03
2018-09-08T10:11:38.692Z,8.90
2018-09-08T10:14:14.821Z,9.00
2018-09-08T10:16:51.421Z,11.17
2018-09-08T10:19:28.202Z,8.37
2018-09-08T10:22:05.163Z,7.23
2018-09-08T10:24:41.391Z,7.17
2018-09-08T11:18:48.308Z,3.80
2018-09-08T11:40:17.638Z,4.93
2018-09-08T11:42:52.905Z,4.20
2018-09-08T11:45:28.617Z,2.83
2018-09-08T11:48:05.545Z,6.20
2018-09-08T11:50:41.058Z,2.37
2018-09-08T11:53:16.501Z,2.97
2018-09-08T11:55:52.318Z,3.80
2018-09-08T11:58:27.850Z,3.63
2018-09-08T12:01:03.638Z,3.70
2018-09-08T12:03:39.359Z,2.47
2018-09-08T12:06:16.041Z,5.33
2018-09-08T12:08:51.544Z,3.90
2018-09-08T12:11:27.157Z,4.50
2018-09-08T12:14:03.391Z,3.67
2018-09-08T12:16:38.744Z,5.33
2018-09-08T12:19:14.284Z,5.17
2018-09-08T12:21:49.531Z,3.47
2018-09-08T12:24:25.244Z,3.73
2018-09-08T12:27:00.623Z,3.27
2018-09-08T12:29:35.884Z,10.67
2018-09-08T12:32:11.409Z,5.00
2018-09-08T12:34:47.323Z,4.47
2018-09-08T12:37:22.806Z,3.00
2018-09-08T12:39:58.263Z,3.50
2018-09-08T12:42:35.224Z,3.03
2018-09-08T12:45:10.525Z,3.03
2018-09-08T12:47:45.923Z,3.60
2018-09-08T12:50:21.263Z,3.80
2018-09-08T12:52:56.524Z,3.67
2018-09-08T12:55:31.984Z,3.00
2018-09-08T12:58:07.597Z,3.40
2018-09-08T13:00:42.959Z,3.10
2018-09-08T13:03:18.298Z,6.60
2018-09-08T13:05:53.736Z,3.07
2018-09-08T13:08:28.956Z,3.30
2018-09-08T13:11:04.796Z,3.83
2018-09-08T13:13:39.935Z,5.80
2018-09-08T13:16:15.066Z,3.83
2018-09-08T13:18:50.563Z,3.23
2018-09-08T13:21:25.779Z,3.47
2018-09-08T13:24:01.054Z,3.23
2018-09-08T13:26:36.363Z,4.50
2018-09-08T13:29:11.764Z,3.10
2018-09-08T13:31:46.934Z,4.40
2018-09-08T13:34:22.424Z,5.63
2018-09-08T13:36:57.720Z,2.97
2018-09-08T13:39:33.222Z,4.17
2018-09-08T13:42:08.261Z,4.13
2018-09-08T13:44:43.638Z,3.23
2018-09-08T13:47:19.226Z,3.40
2018-09-08T13:49:54.534Z,3.30
2018-09-08T13:52:29.816Z,3.53
2018-09-08T13:55:05.313Z,4.00
2018-09-08T13:57:40.717Z,2.93
2018-09-08T14:00:16.078Z,2.50
2018-09-08T14:02:51.333Z,4.27
2018-09-08T14:05:26.584Z,2.90
2018-09-08T14:08:05.230Z,2.73
2018-09-08T14:10:40.702Z,3.57
2018-09-08T14:13:16.126Z,2.90
2018-09-08T14:15:51.438Z,3.17
2018-09-08T14:18:26.937Z,3.23
2018-09-08T14:21:02.460Z,7.23
2018-09-08T14:23:37.899Z,2.90
2018-09-08T14:26:13.212Z,2.90
2018-09-08T14:28:48.488Z,4.40
2018-09-08T14:31:24.018Z,3.60
2018-09-08T14:33:59.298Z,3.10
2018-09-08T14:36:34.724Z,3.90
2018-09-08T14:39:10.657Z,3.40
2018-09-08T14:41:46.099Z,3.33
2018-09-08T14:44:21.462Z,3.07
2018-09-08T14:46:56.767Z,5.13
2018-09-08T14:49:32.257Z,3.30
2018-09-08T14:52:07.777Z,3.37
2018-09-08T14:54:43.037Z,5.17
2018-09-08T14:57:18.364Z,3.13
2018-09-08T14:59:53.795Z,3.03
2018-09-08T15:02:29.103Z,2.63
2018-09-08T15:05:04.670Z,2.73
2018-09-08T15:07:39.792Z,4.27
2018-09-08T15:10:15.154Z,6.60
2018-09-08T15:12:50.494Z,2.60
2018-09-08T15:15:25.799Z,3.13
2018-09-08T15:18:01.229Z,2.67
2018-09-08T15:20:36.720Z,3.57
2018-09-08T15:23:12.341Z,4.53
2018-09-08T15:25:47.955Z,2.50
2018-09-08T15:28:23.388Z,2.60
2018-09-08T15:30:58.861Z,2.90
2018-09-08T15:33:34.457Z,3.27
2018-09-08T15:36:10.003Z,3.63
2018-09-08T15:38:45.338Z,3.63
2018-09-08T15:41:20.649Z,3.87
2018-09-08T15:45:21.314Z,3.20
2018-09-08T15:47:56.656Z,2.83
2018-09-08T15:50:31.980Z,2.80
2018-09-08T15:53:41.097Z,4.30
2018-09-08T15:56:10.363Z,3.33
2018-09-08T15:58:39.724Z,3.00
2018-09-08T16:01:08.909Z,3.23
2018-09-08T16:03:38.265Z,3.20
2018-09-08T16:06:07.545Z,3.00
2018-09-08T16:08:36.985Z,2.80
2018-09-08T16:11:06.371Z,2.63
2018-09-08T16:13:35.684Z,3.50
2018-09-08T16:16:05.144Z,3.93
2018-09-08T16:18:34.503Z,4.80
2018-09-08T16:21:03.883Z,3.23
2018-09-08T16:23:33.103Z,3.70
2018-09-08T16:26:02.463Z,3.13
2018-09-08T16:28:31.812Z,2.70
2018-09-08T16:31:01.074Z,2.70
2018-09-08T16:33:30.442Z,4.40
2018-09-08T16:35:59.761Z,3.90
2018-09-08T16:38:29.187Z,3.37
2018-09-08T16:40:58.469Z,4.57
2018-09-08T16:43:27.748Z,3.23
2018-09-08T16:45:57.129Z,3.07
2018-09-08T16:48:26.487Z,3.23
2018-09-08T16:50:55.749Z,3.47
2018-09-08T16:53:25.030Z,3.83
2018-09-08T16:55:54.345Z,3.60
2018-09-08T16:58:23.706Z,3.43
2018-09-08T17:00:53.023Z,4.57
2018-09-08T17:03:22.287Z,3.37
2018-09-08T17:05:51.824Z,3.83
2018-09-08T17:08:21.143Z,4.10
2018-09-08T17:10:50.617Z,6.80
2018-09-08T17:13:19.783Z,3.70
2018-09-08T17:15:49.043Z,5.90
2018-09-08T17:18:18.243Z,13.67
2018-09-08T17:20:47.666Z,13.13
2018-09-08T17:23:16.983Z,14.33
2018-09-08T17:25:46.460Z,34.60
2018-09-08T17:28:15.862Z,4.77
2018-09-08T17:30:45.257Z,13.93
2018-09-08T17:33:14.539Z,14.37
2018-09-08T17:35:43.877Z,10.53
2018-09-08T17:38:13.213Z,8.00
2018-09-08T17:40:42.518Z,11.77
2018-09-08T17:43:24.093Z,20.40
2018-09-08T17:45:53.324Z,10.93
2018-09-08T17:48:22.637Z,75.10
2018-09-08T17:50:52.098Z,5.87
2018-09-08T17:53:21.356Z,7.50
2018-09-08T17:55:50.737Z,54.73
2018-09-08T17:58:20.053Z,200.13
2018-09-08T18:00:49.457Z,75.00
2018-09-08T18:03:18.837Z,106.80
2018-09-08T18:05:48.352Z,59.60
2018-09-08T18:08:19.256Z,109.50
2018-09-08T18:10:48.517Z,6.50
2018-09-08T18:13:17.797Z,111.20
2018-09-08T18:15:47.073Z,40.83
2018-09-08T18:18:16.439Z,6.63
2018-09-08T18:20:45.737Z,10.30
2018-09-08T18:23:14.957Z,20.20
2018-09-08T18:25:44.196Z,17.10
2018-09-08T18:28:13.537Z,7.23
2018-09-08T18:30:42.836Z,4.77
2018-09-08T18:33:12.193Z,7.77
2018-09-08T18:35:41.436Z,7.43
2018-09-08T18:38:10.644Z,7.20
2018-09-08T18:40:39.818Z,12.13
2018-09-08T18:43:09.068Z,8.27
2018-09-08T18:45:38.337Z,7.97
2018-09-08T18:48:07.781Z,10.40
2018-09-08T18:50:37.116Z,9.17
2018-09-08T18:53:06.952Z,10.03
2018-09-08T18:55:36.497Z,9.43
2018-09-08T18:58:05.697Z,16.00
2018-09-08T19:00:35.913Z,25.43
2018-09-08T19:03:05.277Z,8.97
2018-09-08T19:05:34.497Z,15.27
2018-09-08T19:08:03.892Z,9.07
2018-09-08T19:10:33.777Z,16.43
2018-09-08T19:13:04.117Z,10.10
2018-09-08T19:15:33.619Z,14.57
2018-09-08T19:18:02.936Z,6.67
2018-09-08T19:20:37.178Z,7.07
2018-09-08T19:23:06.533Z,12.57
2018-09-08T19:25:36.041Z,14.00
2018-09-08T19:28:05.516Z,11.27
2018-09-08T19:30:34.879Z,6.87
2018-09-08T19:33:04.136Z,5.57
2018-09-08T19:35:36.812Z,7.17
2018-09-08T19:38:07.157Z,7.97
2018-09-08T19:40:42.037Z,9.27
2018-09-08T19:43:11.236Z,8.40
2018-09-08T19:45:40.538Z,7.77
2018-09-08T19:48:15.177Z,6.37
2018-09-08T19:50:45.977Z,9.57
2018-09-08T19:53:20.817Z,13.77
2018-09-08T19:55:50.597Z,9.57
2018-09-08T19:58:26.036Z,13.53
2018-09-08T20:00:55.657Z,6.73
2018-09-08T20:03:25.037Z,6.40
2018-09-08T20:05:54.662Z,6.83
2018-09-08T20:08:24.501Z,6.57
2018-09-08T20:10:54.322Z,11.43
2018-09-08T20:13:23.861Z,7.13
2018-09-08T20:15:55.341Z,10.07
2018-09-08T20:18:24.961Z,10.70
2018-09-08T20:20:54.780Z,8.97
2018-09-08T20:23:24.612Z,10.90
2018-09-08T20:25:54.021Z,8.83
2018-09-08T20:28:23.564Z,9.37
2018-09-08T20:30:53.000Z,8.70
2018-09-08T20:33:22.900Z,7.67
2018-09-08T20:35:53.909Z,10.20
2018-09-08T20:38:23.756Z,9.40
2018-09-08T20:40:53.481Z,6.87
2018-09-08T20:43:23.660Z,8.67
2018-09-08T20:45:53.620Z,9.67
2018-09-08T20:48:23.401Z,7.10
2018-09-08T20:50:53.129Z,9.10
2018-09-08T20:53:23.063Z,8.53
2018-09-08T20:55:52.820Z,8.53
2018-09-08T20:58:22.550Z,7.83
2018-09-08T21:00:52.281Z,8.10
2018-09-08T21:03:21.960Z,8.43
2018-09-08T21:05:51.440Z,8.30
2018-09-08T21:08:20.980Z,6.67
2018-09-08T21:10:50.683Z,10.20
2018-09-08T21:13:20.600Z,6.33
2018-09-08T21:15:50.340Z,7.67
2018-09-08T21:18:20.180Z,8.00
2018-09-08T21:20:49.600Z,7.30
2018-09-08T21:23:19.540Z,7.50
2018-09-08T21:25:49.106Z,7.27
2018-09-08T21:28:18.980Z,7.80
2018-09-08T21:30:48.474Z,8.37
2018-09-08T21:33:17.800Z,6.50
2018-09-08T21:35:47.140Z,8.80
2018-09-08T21:38:16.380Z,8.13
2018-09-08T21:40:45.640Z,7.50
2018-09-08T21:43:14.880Z,7.47
2018-09-08T21:45:44.422Z,8.77
2018-09-08T21:48:13.681Z,9.10
2018-09-08T21:50:43.141Z,9.03
2018-09-08T21:53:12.480Z,8.47
2018-09-08T21:55:41.840Z,8.63
2018-09-08T21:58:11.477Z,10.40
2018-09-08T22:00:45.277Z,10.20
2018-09-08T22:03:14.937Z,9.90
2018-09-08T22:05:44.187Z,7.87
2018-09-08T22:08:13.436Z,9.37
2018-09-08T22:10:42.696Z,8.63
2018-09-08T22:13:12.016Z,7.67
2018-09-08T22:15:41.402Z,9.23
2018-09-08T22:18:10.756Z,9.17
2018-09-08T22:20:39.999Z,6.47
2018-09-08T22:23:09.337Z,7.33
2018-09-08T22:25:38.576Z,8.57
2018-09-08T22:28:07.819Z,7.30
2018-09-08T22:30:37.077Z,7.37
2018-09-08T22:33:06.417Z,7.80
2018-09-08T22:35:35.697Z,9.10
2018-09-08T22:38:05.180Z,9.57
2018-09-08T22:40:34.457Z,7.57
2018-09-08T22:43:03.652Z,10.43
2018-09-08T22:45:32.837Z,10.60
2018-09-08T22:48:02.497Z,8.33
2018-09-08T22:50:31.756Z,8.13
2018-09-08T22:53:01.057Z,12.50
2018-09-08T22:55:30.377Z,8.17
2018-09-08T22:57:59.536Z,7.90
2018-09-08T23:00:28.876Z,8.37
2018-09-08T23:02:58.077Z,7.77
2018-09-08T23:05:27.336Z,9.37
2018-09-08T23:07:56.521Z,9.63
2018-09-08T23:10:25.856Z,10.70
2018-09-08T23:12:55.216Z,7.77
2018-09-08T23:15:24.578Z,12.17
2018-09-08T23:17:53.896Z,8.20
2018-09-08T23:20:23.216Z,9.70
2018-09-08T23:22:52.507Z,8.50
2018-09-08T23:25:21.796Z,7.80
2018-09-08T23:27:51.036Z,7.77
2018-09-08T23:30:20.616Z,8.00
2018-09-08T23:32:49.780Z,9.07
2018-09-08T23:35:19.416Z,11.43
2018-09-08T23:37:48.676Z,9.30
2018-09-08T23:40:17.977Z,12.37
2018-09-08T23:42:47.256Z,9.80
2018-09-08T23:45:16.516Z,11.57
2018-09-08T23:47:45.719Z,11.70
2018-09-08T23:50:15.020Z,8.53
2018-09-08T23:52:44.636Z,8.87
2018-09-08T23:55:13.836Z,8.53
2018-09-08T23:57:43.117Z,10.60
